createdAt,value
2018-02-25T00:00:23.142Z,60.90
2018-02-25T00:02:50.679Z,61.20
2018-02-25T00:05:18.942Z,61.60
2018-02-25T00:07:47.210Z,62.00
2018-02-25T00:10:14.718Z,62.00
2018-02-25T00:12:42.239Z,62.00
2018-02-25T00:15:09.771Z,62.10
2018-02-25T00:17:37.284Z,61.50
2018-02-25T00:20:04.778Z,62.00
2018-02-25T00:22:32.286Z,62.00
2018-02-25T00:25:00.567Z,61.60
2018-02-25T00:27:28.858Z,62.20
2018-02-25T00:29:56.372Z,62.20
2018-02-25T00:32:23.869Z,62.10
2018-02-25T00:34:52.165Z,62.00
2018-02-25T00:37:19.672Z,62.00
2018-02-25T00:39:47.178Z,62.10
2018-02-25T00:42:14.686Z,62.40
2018-02-25T00:44:42.217Z,61.70
2018-02-25T00:47:09.754Z,62.10
2018-02-25T00:49:37.225Z,62.00
2018-02-25T00:52:04.751Z,62.70
2018-02-25T00:54:32.285Z,62.90
2018-02-25T00:57:01.310Z,63.20
2018-02-25T00:59:28.830Z,63.10
2018-02-25T01:01:56.326Z,63.00
2018-02-25T01:04:24.604Z,63.30
2018-02-25T01:06:52.147Z,63.20
2018-02-25T01:09:20.445Z,63.80
2018-02-25T01:11:48.715Z,63.10
2018-02-25T01:14:16.974Z,63.30
2018-02-25T01:16:44.478Z,63.30
2018-02-25T01:19:11.982Z,63.90
2018-02-25T01:21:39.496Z,64.40
2018-02-25T01:24:06.990Z,64.20
2018-02-25T01:26:34.511Z,63.50
2018-02-25T01:29:02.055Z,63.90
2018-02-25T01:31:29.574Z,63.60
2018-02-25T01:33:57.089Z,63.90
2018-02-25T01:36:24.595Z,63.60
2018-02-25T01:38:52.879Z,63.70
2018-02-25T01:41:20.494Z,63.60
2018-02-25T01:43:49.058Z,64.20
2018-02-25T01:46:16.566Z,63.80
2018-02-25T01:48:44.067Z,63.80
2018-02-25T01:51:12.342Z,63.90
2018-02-25T01:53:40.603Z,64.40
2018-02-25T01:56:08.885Z,64.50
2018-02-25T01:58:37.186Z,64.50
2018-02-25T02:01:04.701Z,64.40
2018-02-25T02:03:32.200Z,64.50
2018-02-25T02:05:59.741Z,64.80
2018-02-25T02:08:28.010Z,64.40
2018-02-25T02:10:56.320Z,64.70
2018-02-25T02:13:23.834Z,64.60
2018-02-25T02:15:51.326Z,65.00
2018-02-25T02:18:18.877Z,65.40
2018-02-25T02:20:47.146Z,64.80
2018-02-25T02:23:15.422Z,65.60
2018-02-25T02:25:43.699Z,65.90
2018-02-25T02:28:12.003Z,66.30
2018-02-25T02:30:39.521Z,66.30
2018-02-25T02:33:07.041Z,65.90
2018-02-25T02:35:34.545Z,66.90
2018-02-25T02:38:02.139Z,66.50
2018-02-25T02:40:29.650Z,66.70
2018-02-25T02:42:57.176Z,66.60
2018-02-25T02:45:25.694Z,66.40
2018-02-25T02:47:53.207Z,66.70
2018-02-25T02:50:20.737Z,67.20
2018-02-25T02:52:49.009Z,66.90
2018-02-25T02:55:17.287Z,67.00
2018-02-25T02:57:45.551Z,67.30
2018-02-25T03:00:13.067Z,67.30
2018-02-25T03:02:40.573Z,66.90
2018-02-25T03:05:08.862Z,67.70
2018-02-25T03:07:37.138Z,66.80
2018-02-25T03:10:05.423Z,67.20
2018-02-25T03:12:32.955Z,67.10
2018-02-25T03:15:00.482Z,67.20
2018-02-25T03:17:27.998Z,67.10
2018-02-25T03:19:56.267Z,66.70
2018-02-25T03:22:24.591Z,67.10
2018-02-25T03:24:52.088Z,67.00
2018-02-25T03:27:19.606Z,67.40
2018-02-25T03:29:47.118Z,67.40
2018-02-25T03:32:15.407Z,66.70
2018-02-25T03:34:43.674Z,66.50
2018-02-25T03:37:11.968Z,66.60
2018-02-25T03:39:39.488Z,66.60
2018-02-25T03:42:07.018Z,66.90
2018-02-25T03:44:34.534Z,67.00
2018-02-25T03:47:02.837Z,66.60
2018-02-25T03:49:30.350Z,66.60
2018-02-25T03:51:57.853Z,67.10
2018-02-25T03:54:25.373Z,66.60
2018-02-25T03:56:52.926Z,66.70
2018-02-25T03:59:20.438Z,66.70
2018-02-25T04:01:47.932Z,66.50
2018-02-25T04:04:15.445Z,66.90
2018-02-25T04:06:42.950Z,67.00
2018-02-25T04:09:10.470Z,66.00
2018-02-25T04:11:37.975Z,65.10
2018-02-25T04:14:06.992Z,65.60
2018-02-25T04:16:35.283Z,65.50
2018-02-25T04:19:02.794Z,65.40
2018-02-25T04:21:30.323Z,65.00
2018-02-25T04:23:57.824Z,65.30
2018-02-25T04:26:26.103Z,65.50
2018-02-25T04:28:53.665Z,65.50
2018-02-25T04:31:21.191Z,65.50
2018-02-25T04:33:48.694Z,65.40
2018-02-25T04:36:16.259Z,65.80
2018-02-25T04:38:44.538Z,66.20
2018-02-25T04:41:12.070Z,66.20
2018-02-25T04:43:39.588Z,66.10
2018-02-25T04:46:07.091Z,65.70
2018-02-25T04:48:34.610Z,65.90
2018-02-25T04:51:02.120Z,65.80
2018-02-25T04:53:30.417Z,65.50
2018-02-25T04:55:58.682Z,65.50
2018-02-25T04:58:26.970Z,65.40
2018-02-25T05:00:55.245Z,64.80
2018-02-25T05:03:23.525Z,65.40
2018-02-25T05:05:51.066Z,65.40
2018-02-25T05:08:19.358Z,65.70
2018-02-25T05:10:47.636Z,65.30
2018-02-25T05:13:15.938Z,64.90
2018-02-25T05:15:43.435Z,64.90
2018-02-25T05:18:10.956Z,64.10
2018-02-25T05:20:38.461Z,64.40
2018-02-25T05:23:05.958Z,64.50
2018-02-25T05:25:33.485Z,64.30
2018-02-25T05:28:00.990Z,63.80
2018-02-25T05:30:28.523Z,64.50
2018-02-25T05:32:56.782Z,64.80
2018-02-25T05:35:24.291Z,64.60
2018-02-25T05:37:51.803Z,64.10
2018-02-25T05:40:20.094Z,63.90
2018-02-25T05:42:48.367Z,64.40
2018-02-25T05:45:16.654Z,64.80
2018-02-25T05:47:44.918Z,64.70
2018-02-25T05:50:13.194Z,64.30
2018-02-25T05:52:41.470Z,64.60
2018-02-25T05:55:09.756Z,64.70
2018-02-25T05:57:38.027Z,64.20
2018-02-25T06:00:06.315Z,64.20
2018-02-25T06:02:33.840Z,64.00
2018-02-25T06:05:01.345Z,64.50
2018-02-25T06:07:28.873Z,64.10
2018-02-25T06:09:57.158Z,64.40
2018-02-25T06:12:25.447Z,64.60
2018-02-25T06:14:52.973Z,64.50
2018-02-25T06:17:20.493Z,64.40
2018-02-25T06:19:49.013Z,64.80
2018-02-25T06:22:16.539Z,64.40
2018-02-25T06:24:44.038Z,64.60
2018-02-25T06:27:11.556Z,64.60
2018-02-25T06:29:39.061Z,65.60
2018-02-25T06:32:06.581Z,64.40
2018-02-25T06:34:34.102Z,64.80
2018-02-25T06:37:02.385Z,64.20
2018-02-25T06:39:29.899Z,64.20
2018-02-25T06:41:57.400Z,64.80
2018-02-25T06:44:24.931Z,64.50
2018-02-25T06:46:52.427Z,65.10
2018-02-25T06:49:19.964Z,65.60
2018-02-25T06:51:48.253Z,65.00
2018-02-25T06:54:15.765Z,65.00
2018-02-25T06:56:43.289Z,65.30
2018-02-25T06:59:10.781Z,64.90
2018-02-25T07:01:38.298Z,65.50
2018-02-25T07:04:05.808Z,65.00
2018-02-25T07:06:33.312Z,64.90
2018-02-25T07:09:00.831Z,65.10
2018-02-25T07:11:28.330Z,65.10
2018-02-25T07:13:55.886Z,65.50
2018-02-25T07:16:23.395Z,65.50
2018-02-25T07:18:50.887Z,65.60
2018-02-25T07:21:19.180Z,64.80
2018-02-25T07:23:46.697Z,64.80
2018-02-25T07:26:14.214Z,64.90
2018-02-25T07:28:41.716Z,64.40
2018-02-25T07:31:09.210Z,65.30
2018-02-25T07:33:36.741Z,65.40
2018-02-25T07:36:04.238Z,65.00
2018-02-25T07:38:31.775Z,64.00
2018-02-25T07:41:00.043Z,64.50
2018-02-25T07:43:28.342Z,64.10
2018-02-25T07:45:55.878Z,64.10
2018-02-25T07:48:25.184Z,65.30
2018-02-25T07:50:53.490Z,64.50
2018-02-25T07:53:20.998Z,64.30
2018-02-25T07:55:48.502Z,64.30
2018-02-25T07:58:16.038Z,64.70
2018-02-25T08:00:44.317Z,64.80
2018-02-25T08:03:12.614Z,65.00
2018-02-25T08:05:40.121Z,65.00
2018-02-25T08:08:07.632Z,64.30
2018-02-25T08:10:35.166Z,64.70
2018-02-25T08:13:03.448Z,64.70
2018-02-25T08:15:31.750Z,65.00
2018-02-25T08:17:59.264Z,65.00
2018-02-25T08:20:26.772Z,63.80
2018-02-25T08:22:54.295Z,63.50
2018-02-25T08:25:21.799Z,63.90
2018-02-25T08:27:49.362Z,64.00
2018-02-25T08:30:16.891Z,63.70
2018-02-25T08:32:45.213Z,62.40
2018-02-25T08:35:12.752Z,62.40
2018-02-25T08:37:40.278Z,62.40
2018-02-25T08:40:08.680Z,62.50
2018-02-25T08:42:36.190Z,62.40
2018-02-25T08:45:03.707Z,62.30
2018-02-25T08:47:31.230Z,62.80
2018-02-25T08:49:59.511Z,61.30
2018-02-25T08:52:27.823Z,60.70
2018-02-25T08:54:56.342Z,60.70
2018-02-25T08:57:23.852Z,59.60
2018-02-25T08:59:51.571Z,59.20
2018-02-25T09:02:19.124Z,58.70
2018-02-25T09:04:46.688Z,58.30
2018-02-25T09:07:14.214Z,58.90
2018-02-25T09:09:41.746Z,58.10
2018-02-25T09:12:09.324Z,56.40
2018-02-25T09:14:36.836Z,56.20
2018-02-25T09:17:04.370Z,56.00
2018-02-25T09:19:31.897Z,55.80
2018-02-25T09:21:59.412Z,54.90
2018-02-25T09:24:26.960Z,54.30
2018-02-25T09:26:55.987Z,55.10
2018-02-25T09:29:24.291Z,55.60
2018-02-25T09:31:51.798Z,55.60
2018-02-25T09:34:19.315Z,54.20
2018-02-25T09:36:46.837Z,52.10
2018-02-25T09:39:15.099Z,50.00
2018-02-25T09:41:44.132Z,49.10
2018-02-25T09:44:11.642Z,49.00
2018-02-25T09:46:39.149Z,47.00
2018-02-25T09:49:06.659Z,46.30
2018-02-25T09:51:34.938Z,42.70
2018-02-25T09:54:02.470Z,42.10
2018-02-25T09:56:29.967Z,41.70
2018-02-25T09:58:58.234Z,38.60
2018-02-25T10:01:25.855Z,38.70
2018-02-25T10:03:53.416Z,37.10
2018-02-25T10:06:20.938Z,37.30
2018-02-25T10:08:49.217Z,35.70
2018-02-25T10:11:18.482Z,35.60
2018-02-25T10:13:45.993Z,35.60
2018-02-25T10:16:13.488Z,34.90
2018-02-25T10:18:41.006Z,34.00
2018-02-25T10:21:08.520Z,32.60
2018-02-25T10:23:36.010Z,31.30
2018-02-25T10:26:04.316Z,31.70
2018-02-25T10:28:31.862Z,31.70
2018-02-25T10:30:59.396Z,31.30
2018-02-25T10:33:26.898Z,32.30
2018-02-25T10:35:54.442Z,31.80
2018-02-25T10:38:21.958Z,32.30
2018-02-25T10:40:49.450Z,30.40
2018-02-25T10:43:17.732Z,31.50
2018-02-25T10:45:45.257Z,31.50
2018-02-25T10:48:13.530Z,29.20
2018-02-25T10:50:42.527Z,28.80
2018-02-25T10:53:10.826Z,29.70
2018-02-25T10:55:39.077Z,28.80
2018-02-25T10:58:07.366Z,28.20
2018-02-25T11:00:36.923Z,28.20
2018-02-25T11:03:04.438Z,27.70
2018-02-25T11:05:32.741Z,27.10
2018-02-25T11:08:00.213Z,27.10
2018-02-25T11:10:27.702Z,26.50
2018-02-25T11:12:55.233Z,26.70
2018-02-25T11:15:22.731Z,26.10
2018-02-25T11:17:51.753Z,25.90
2018-02-25T11:20:20.006Z,26.20
2018-02-25T11:22:48.266Z,24.80
2018-02-25T11:25:15.781Z,24.80
2018-02-25T11:27:44.218Z,24.20
2018-02-25T11:30:11.722Z,24.50
2018-02-25T11:32:39.225Z,24.60
2018-02-25T11:35:06.743Z,24.40
2018-02-25T11:37:34.237Z,23.70
2018-02-25T11:40:01.739Z,23.60
2018-02-25T11:42:29.995Z,24.30
2018-02-25T11:44:58.302Z,24.60
2018-02-25T11:47:25.815Z,24.20
2018-02-25T11:49:53.314Z,24.20
2018-02-25T11:52:20.831Z,24.30
2018-02-25T11:54:48.338Z,24.50
2018-02-25T11:57:15.832Z,24.70
2018-02-25T11:59:43.386Z,24.40
2018-02-25T12:02:10.882Z,24.20
2018-02-25T12:04:38.403Z,24.30
2018-02-25T12:07:05.893Z,24.30
2018-02-25T12:09:34.178Z,23.40
2018-02-25T12:12:01.689Z,23.40
2018-02-25T12:14:29.186Z,23.30
2018-02-25T12:16:56.696Z,23.20
2018-02-25T12:19:24.198Z,23.20
2018-02-25T12:21:51.824Z,22.80
2018-02-25T12:24:19.314Z,22.00
2018-02-25T12:26:46.855Z,22.00
2018-02-25T12:29:14.366Z,21.70
2018-02-25T12:31:42.677Z,21.80
2018-02-25T12:34:10.208Z,21.80
2018-02-25T12:36:38.465Z,21.50
2018-02-25T12:39:05.974Z,21.50
2018-02-25T12:41:33.470Z,21.50
2018-02-25T12:44:00.959Z,21.60
2018-02-25T12:46:29.235Z,21.30
2018-02-25T12:48:57.498Z,21.40
2018-02-25T12:51:25.820Z,21.30
2018-02-25T12:54:47.798Z,21.20
2018-02-25T12:57:15.296Z,20.90
2018-02-25T12:59:42.807Z,20.80
2018-02-25T13:02:10.338Z,20.40
2018-02-25T13:04:37.837Z,20.20
2018-02-25T13:07:05.324Z,20.00
2018-02-25T13:09:33.694Z,20.00
2018-02-25T13:12:01.942Z,20.50
2018-02-25T13:14:29.557Z,20.40
2018-02-25T13:16:57.093Z,19.30
2018-02-25T13:19:24.637Z,19.50
2018-02-25T13:21:52.950Z,18.80
2018-02-25T13:24:20.484Z,18.80
2018-02-25T13:26:48.761Z,18.80
2018-02-25T13:29:17.014Z,18.60
2018-02-25T13:31:44.502Z,18.60
2018-02-25T13:34:12.796Z,18.30
2018-02-25T13:36:40.298Z,18.30
2018-02-25T13:39:07.815Z,18.40
2018-02-25T13:41:35.331Z,18.50
2018-02-25T13:44:02.835Z,17.90
2018-02-25T13:46:30.352Z,17.20
2018-02-25T13:48:57.846Z,16.90
2018-02-25T13:51:26.977Z,16.70
2018-02-25T13:53:54.459Z,16.70
2018-02-25T13:56:21.956Z,16.60
2018-02-25T13:58:50.234Z,16.50
2018-02-25T14:01:17.755Z,16.40
2018-02-25T14:03:45.294Z,16.30
2018-02-25T14:06:12.811Z,16.10
2018-02-25T14:08:41.077Z,16.00
2018-02-25T14:11:09.349Z,15.90
2018-02-25T14:13:37.602Z,15.50
2018-02-25T14:16:05.122Z,15.50
2018-02-25T14:18:32.610Z,15.40
2018-02-25T14:21:00.105Z,15.40
2018-02-25T14:23:28.382Z,14.80
2018-02-25T14:25:56.634Z,14.30
2018-02-25T14:28:24.941Z,14.20
2018-02-25T14:30:53.238Z,14.00
2018-02-25T14:33:20.742Z,14.00
2018-02-25T14:35:48.364Z,14.20
2018-02-25T14:38:15.971Z,14.10
2018-02-25T14:40:43.483Z,14.00
2018-02-25T14:43:10.984Z,14.50
2018-02-25T14:45:38.478Z,14.10
2018-02-25T14:48:06.750Z,14.60
2018-02-25T14:50:35.009Z,15.10
2018-02-25T14:53:02.527Z,15.10
2018-02-25T14:55:30.018Z,15.70
2018-02-25T14:57:58.283Z,16.20
2018-02-25T15:00:25.799Z,16.30
2018-02-25T15:02:53.334Z,16.50
2018-02-25T15:05:21.611Z,16.90
2018-02-25T15:07:49.877Z,16.90
2018-02-25T15:10:17.463Z,16.90
2018-02-25T15:12:44.986Z,16.80
2018-02-25T15:15:12.503Z,17.30
2018-02-25T15:17:40.024Z,17.40
2018-02-25T15:20:08.283Z,17.80
2018-02-25T15:22:35.779Z,17.80
2018-02-25T15:25:03.318Z,17.80
2018-02-25T15:27:31.592Z,17.90
2018-02-25T15:29:59.966Z,17.60
2018-02-25T15:32:28.230Z,18.20
2018-02-25T15:34:55.709Z,18.10
2018-02-25T15:37:24.839Z,18.40
2018-02-25T15:39:52.334Z,18.40
2018-02-25T15:42:19.846Z,19.40
2018-02-25T15:44:47.370Z,19.90
2018-02-25T15:47:14.874Z,20.20
2018-02-25T15:49:42.390Z,20.30
2018-02-25T15:52:09.914Z,20.40
2018-02-25T15:54:37.414Z,20.60
2018-02-25T15:57:05.676Z,21.10
2018-02-25T15:59:33.944Z,21.20
2018-02-25T16:02:01.487Z,21.20
2018-02-25T16:04:28.985Z,21.30
2018-02-25T16:06:57.269Z,21.70
2018-02-25T16:09:25.521Z,21.50
2018-02-25T16:11:53.046Z,21.50
2018-02-25T16:14:20.559Z,21.80
2018-02-25T16:16:48.845Z,21.80
2018-02-25T16:19:16.342Z,21.80
2018-02-25T16:21:43.832Z,22.20
2018-02-25T16:24:11.326Z,23.20
2018-02-25T16:26:38.851Z,25.10
2018-02-25T16:29:07.134Z,28.20
2018-02-25T16:31:36.159Z,29.00
2018-02-25T16:34:03.699Z,29.00
2018-02-25T16:36:31.956Z,29.40
2018-02-25T16:38:59.470Z,29.40
2018-02-25T16:41:26.991Z,30.40
2018-02-25T16:43:55.283Z,32.70
2018-02-25T16:46:23.745Z,33.90
2018-02-25T16:48:53.101Z,34.10
2018-02-25T16:51:20.608Z,34.10
2018-02-25T16:53:48.894Z,35.10
2018-02-25T16:56:17.173Z,35.90
2018-02-25T16:58:45.452Z,36.90
2018-02-25T17:01:13.722Z,38.50
2018-02-25T17:03:42.003Z,39.00
2018-02-25T17:06:10.262Z,40.00
2018-02-25T17:08:37.778Z,40.00
2018-02-25T17:11:05.276Z,41.10
2018-02-25T17:13:32.764Z,40.70
2018-02-25T17:16:00.294Z,39.00
2018-02-25T17:18:27.790Z,38.10
2018-02-25T17:20:55.383Z,38.20
2018-02-25T17:23:22.924Z,36.20
2018-02-25T17:25:50.479Z,35.00
2018-02-25T17:28:18.731Z,33.40
2018-02-25T17:30:46.994Z,31.60
2018-02-25T17:33:15.290Z,30.60
2018-02-25T17:35:43.571Z,30.20
2018-02-25T17:38:11.105Z,30.10
2018-02-25T17:40:39.410Z,28.40
2018-02-25T17:43:06.960Z,28.30
2018-02-25T17:45:34.482Z,27.70
2018-02-25T17:48:01.985Z,27.50
2018-02-25T17:50:29.507Z,27.60
2018-02-25T17:52:57.034Z,27.80
2018-02-25T17:55:33.565Z,28.70
2018-02-25T17:57:53.145Z,29.70
2018-02-25T18:00:20.674Z,29.20
2018-02-25T18:02:48.530Z,29.20
2018-02-25T18:05:16.062Z,30.00
2018-02-25T18:07:43.581Z,29.60
2018-02-25T18:10:11.890Z,30.20
2018-02-25T18:12:39.404Z,30.20
2018-02-25T18:15:07.694Z,33.40
2018-02-25T18:17:35.978Z,33.70
2018-02-25T18:20:04.250Z,32.90
2018-02-25T18:22:31.960Z,32.90
2018-02-25T18:25:00.286Z,34.70
2018-02-25T18:27:28.604Z,36.10
2018-02-25T18:29:56.190Z,36.10
2018-02-25T18:32:23.700Z,38.00
2018-02-25T18:34:51.258Z,36.70
2018-02-25T18:37:18.833Z,38.10
2018-02-25T18:39:46.357Z,39.70
2018-02-25T18:42:14.646Z,37.10
2018-02-25T18:44:42.917Z,37.10
2018-02-25T18:47:11.266Z,40.10
2018-02-25T18:49:38.762Z,39.80
2018-02-25T18:52:07.076Z,37.10
2018-02-25T18:54:34.612Z,37.10
2018-02-25T18:57:02.190Z,37.10
2018-02-25T18:59:29.779Z,39.90
2018-02-25T19:01:57.461Z,39.60
2018-02-25T19:04:25.756Z,39.90
2018-02-25T19:06:54.042Z,38.40
2018-02-25T19:09:22.444Z,39.10
2018-02-25T19:11:50.127Z,39.00
2018-02-25T19:14:17.694Z,40.70
2018-02-25T19:16:45.394Z,41.20
2018-02-25T19:19:13.813Z,43.00
2018-02-25T19:21:42.427Z,42.90
2018-02-25T19:24:10.135Z,44.00
2018-02-25T19:26:38.489Z,48.90
2018-02-25T19:29:05.994Z,48.90
2018-02-25T19:31:33.558Z,50.40
2018-02-25T19:34:01.105Z,52.10
2018-02-25T19:36:34.320Z,52.10
2018-02-25T19:39:07.735Z,52.70
2018-02-25T19:41:40.978Z,52.40
2018-02-25T19:44:08.605Z,52.70
2018-02-25T19:46:36.241Z,52.90
2018-02-25T19:49:03.792Z,52.50
2018-02-25T19:51:31.298Z,51.70
2018-02-25T19:53:59.643Z,54.30
2018-02-25T19:56:27.205Z,54.30
2018-02-25T19:58:54.767Z,55.40
2018-02-25T20:01:22.416Z,56.30
2018-02-25T20:03:50.062Z,56.70
2018-02-25T20:06:17.734Z,57.50
2018-02-25T20:08:45.262Z,57.90
2018-02-25T20:11:13.122Z,58.40
2018-02-25T20:13:40.729Z,58.10
2018-02-25T20:16:08.240Z,58.20
2018-02-25T20:18:36.521Z,60.30
2018-02-25T20:21:04.796Z,61.00
2018-02-25T20:23:33.411Z,62.60
2018-02-25T20:26:00.954Z,62.50
2018-02-25T20:28:28.470Z,63.00
2018-02-25T20:30:56.789Z,65.00
2018-02-25T20:33:24.406Z,64.90
2018-02-25T20:35:51.938Z,65.50
2018-02-25T20:38:19.476Z,66.10
2018-02-25T20:40:46.992Z,66.70
2018-02-25T20:43:15.299Z,67.00
2018-02-25T20:45:43.597Z,67.40
2018-02-25T20:48:11.143Z,67.30
2018-02-25T20:50:38.807Z,67.20
2018-02-25T20:53:06.348Z,67.10
2018-02-25T20:55:34.673Z,67.60
2018-02-25T20:58:02.202Z,67.50
2018-02-25T21:00:30.403Z,67.50
2018-02-25T21:02:57.940Z,67.20
2018-02-25T21:05:25.482Z,68.10
2018-02-25T21:07:53.802Z,67.80
2018-02-25T21:10:21.328Z,67.80
2018-02-25T21:12:48.877Z,67.80
2018-02-25T21:15:17.174Z,67.50
2018-02-25T21:17:44.694Z,67.40
2018-02-25T21:20:12.308Z,67.60
2018-02-25T21:22:39.853Z,67.30
2018-02-25T21:25:07.381Z,67.30
2018-02-25T21:27:34.886Z,67.60
2018-02-25T21:30:02.403Z,67.80
2018-02-25T21:32:30.682Z,68.20
2018-02-25T21:34:58.945Z,68.80
2018-02-25T21:37:26.474Z,68.80
2018-02-25T21:39:53.998Z,68.90
2018-02-25T21:42:21.514Z,68.70
2018-02-25T21:44:49.038Z,68.90
2018-02-25T21:47:16.580Z,69.50
2018-02-25T21:49:44.097Z,69.60
2018-02-25T21:52:11.615Z,69.50
2018-02-25T21:54:44.814Z,69.40
2018-02-25T21:57:17.915Z,69.50
2018-02-25T21:59:51.086Z,69.50
2018-02-25T22:02:24.322Z,69.30
2018-02-25T22:04:51.871Z,70.00
2018-02-25T22:07:19.384Z,69.70
2018-02-25T22:09:46.902Z,70.60
2018-02-25T22:12:14.413Z,71.10
2018-02-25T22:14:41.914Z,70.40
2018-02-25T22:17:09.427Z,70.50
2018-02-25T22:19:36.935Z,70.70
2018-02-25T22:22:04.453Z,70.60
2018-02-25T22:24:31.965Z,70.50
2018-02-25T22:27:00.235Z,72.00
2018-02-25T22:29:28.535Z,71.10
2018-02-25T22:31:56.035Z,71.00
2018-02-25T22:34:23.534Z,71.40
2018-02-25T22:36:51.828Z,71.80
2018-02-25T22:39:20.104Z,71.60
2018-02-25T22:41:48.405Z,72.10
2018-02-25T22:44:15.904Z,72.00
2018-02-25T22:46:43.401Z,71.70
2018-02-25T22:49:10.955Z,71.40
2018-02-25T22:51:39.224Z,72.30
2018-02-25T22:54:07.511Z,72.50
2018-02-25T22:56:35.798Z,72.90
2018-02-25T22:59:03.294Z,72.80
2018-02-25T23:01:30.820Z,73.90
2018-02-25T23:03:58.334Z,73.40
2018-02-25T23:06:25.865Z,73.70
2018-02-25T23:08:53.362Z,74.30
2018-02-25T23:11:20.849Z,74.40
2018-02-25T23:13:48.418Z,74.50
2018-02-25T23:16:15.918Z,75.10
2018-02-25T23:18:43.458Z,74.30
2018-02-25T23:21:10.957Z,74.10
2018-02-25T23:23:38.461Z,74.50
2018-02-25T23:26:05.970Z,74.70
2018-02-25T23:28:33.469Z,75.20
2018-02-25T23:31:00.986Z,74.90
2018-02-25T23:33:28.481Z,75.00
2018-02-25T23:35:55.983Z,74.90
2018-02-25T23:38:23.494Z,74.90
2018-02-25T23:40:50.991Z,75.70
2018-02-25T23:43:18.519Z,75.60
2018-02-25T23:45:46.078Z,76.20
2018-02-25T23:48:13.570Z,76.00
2018-02-25T23:50:41.079Z,75.80
2018-02-25T23:53:09.342Z,76.00
2018-02-25T23:55:37.632Z,75.70
2018-02-25T23:58:05.909Z,76.00
